TimeEST,TemperatureF,Dew PointF,Humidity,Sea Level PressureIn,VisibilityMPH,Wind Direction,Wind SpeedMPH,Gust SpeedMPH,PrecipitationIn,Events,Conditions,WindDirDegrees,DateUTC
12:52 AM,15.1,9.0,77,30.09,10.0,WNW,6.9,-,N/A,,Scattered Clouds,300,2013-02-17 05:52:00
1:52 AM,16.0,9.0,74,30.10,10.0,WNW,5.8,-,N/A,,Mostly Cloudy,290,2013-02-17 06:52:00
2:52 AM,14.0,9.0,80,30.11,10.0,WNW,5.8,-,N/A,,Clear,290,2013-02-17 07:52:00
3:52 AM,14.0,9.0,80,30.11,10.0,WNW,5.8,-,N/A,,Clear,290,2013-02-17 08:52:00
4:52 AM,14.0,9.0,80,30.13,10.0,WNW,6.9,-,N/A,,Clear,290,2013-02-17 09:52:00
5:43 AM,14.0,10.4,86,30.11,10.0,WNW,6.9,-,N/A,,Mostly Cloudy,300,2013-02-17 10:43:00
5:52 AM,15.1,10.0,80,30.14,10.0,NW,9.2,-,N/A,,Overcast,310,2013-02-17 10:52:00
6:19 AM,14.0,10.4,86,30.12,10.0,NW,8.1,-,N/A,,Scattered Clouds,320,2013-02-17 11:19:00
6:52 AM,12.9,9.0,84,30.17,10.0,NW,6.9,-,N/A,,Clear,320,2013-02-17 11:52:00
7:52 AM,12.9,8.1,81,30.19,10.0,NW,3.5,-,N/A,,Clear,310,2013-02-17 12:52:00
8:25 AM,15.8,8.6,73,30.16,10.0,NNW,6.9,-,N/A,,Mostly Cloudy,340,2013-02-17 13:25:00
8:52 AM,15.8,8.6,73,30.16,10.0,NNW,9.2,-,N/A,,Overcast,340,2013-02-17 13:52:00
9:52 AM,18.0,9.0,68,30.21,10.0,Variable,3.5,-,0.00,,Overcast,0,2013-02-17 14:52:00
10:35 AM,19.4,8.6,63,30.18,10.0,North,9.2,-,N/A,,Scattered Clouds,360,2013-02-17 15:35:00
10:45 AM,19.4,8.6,63,30.19,10.0,WNW,9.2,-,N/A,,Mostly Cloudy,290,2013-02-17 15:45:00
10:52 AM,19.0,8.1,62,30.23,10.0,NW,4.6,-,N/A,,Scattered Clouds,310,2013-02-17 15:52:00
11:52 AM,21.0,6.1,53,30.23,10.0,NNW,11.5,-,N/A,,Mostly Cloudy,340,2013-02-17 16:52:00
12:52 PM,24.1,3.0,40,30.22,10.0,NW,10.4,-,N/A,,Mostly Cloudy,310,2013-02-17 17:52:00
1:52 PM,23.0,3.0,42,30.22,10.0,NW,10.4,-,N/A,,Overcast,310,2013-02-17 18:52:00
2:52 PM,25.0,3.0,39,30.20,10.0,NNW,8.1,-,N/A,,Mostly Cloudy,330,2013-02-17 19:52:00
3:52 PM,26.1,3.0,37,30.20,10.0,NW,11.5,-,N/A,,Mostly Cloudy,320,2013-02-17 20:52:00
4:52 PM,25.0,3.9,41,30.21,10.0,West,11.5,-,N/A,,Overcast,270,2013-02-17 21:52:00
5:52 PM,24.1,3.9,42,30.22,10.0,West,9.2,-,N/A,,Mostly Cloudy,270,2013-02-17 22:52:00
6:52 PM,23.0,5.0,46,30.23,10.0,WNW,3.5,-,N/A,,Partly Cloudy,290,2013-02-17 23:52:00
7:52 PM,18.0,6.1,60,30.22,10.0,Calm,Calm,-,N/A,,Clear,0,2013-02-18 00:52:00
8:52 PM,16.0,7.0,68,30.23,10.0,Calm,Calm,-,N/A,,Clear,0,2013-02-18 01:52:00
9:52 PM,12.9,7.0,77,30.24,10.0,Calm,Calm,-,N/A,,Clear,0,2013-02-18 02:52:00
10:52 PM,12.0,7.0,80,30.23,10.0,Calm,Calm,-,N/A,,Clear,0,2013-02-18 03:52:00